sensor_id;sensor_type;location;lat;lon;timestamp;temperature;humidity
52275;DHT22;38228;50.940;4.024;2023-07-16T00:02:09;19.40;99.90
52275;DHT22;38228;50.940;4.024;2023-07-16T00:04:35;19.30;99.90
52275;DHT22;38228;50.940;4.024;2023-07-16T00:07:01;19.30;99.90
52275;DHT22;38228;50.940;4.024;2023-07-16T00:09:27;19.30;99.90
52275;DHT22;38228;50.940;4.024;2023-07-16T00:11:53;19.20;99.90
52275;DHT22;38228;50.940;4.024;2023-07-16T00:14:19;19.20;99.90
52275;DHT22;38228;50.940;4.024;2023-07-16T00:16:45;19.10;99.90
52275;DHT22;38228;50.940;4.024;2023-07-16T00:19:11;19.10;99.90
52275;DHT22;38228;50.940;4.024;2023-07-16T00:21:38;19.20;99.90
52275;DHT22;38228;50.940;4.024;2023-07-16T00:24:04;19.10;99.90
52275;DHT22;38228;50.940;4.024;2023-07-16T00:26:30;19.10;99.90
52275;DHT22;38228;50.940;4.024;2023-07-16T00:28:56;19.20;99.90
52275;DHT22;38228;50.940;4.024;2023-07-16T00:31:21;19.20;99.90
52275;DHT22;38228;50.940;4.024;2023-07-16T00:33:47;19.20;99.90
52275;DHT22;38228;50.940;4.024;2023-07-16T00:36:13;19.00;99.90
52275;DHT22;38228;50.940;4.024;2023-07-16T00:38:38;18.90;99.90
52275;DHT22;38228;50.940;4.024;2023-07-16T00:41:06;18.80;99.90
52275;DHT22;38228;50.940;4.024;2023-07-16T00:43:31;18.90;99.90
52275;DHT22;38228;50.940;4.024;2023-07-16T00:46:00;18.80;99.90
52275;DHT22;38228;50.940;4.024;2023-07-16T00:48:26;18.80;99.90
52275;DHT22;38228;50.940;4.024;2023-07-16T00:50:53;18.70;99.90
52275;DHT22;38228;50.940;4.024;2023-07-16T00:53:20;18.80;99.90
52275;DHT22;38228;50.940;4.024;2023-07-16T00:55:46;18.90;99.90
52275;DHT22;38228;50.940;4.024;2023-07-16T00:58:12;18.80;99.90
52275;DHT22;38228;50.940;4.024;2023-07-16T01:00:41;18.80;99.90
52275;DHT22;38228;50.940;4.024;2023-07-16T01:03:12;18.90;99.90
52275;DHT22;38228;50.940;4.024;2023-07-16T01:08:35;18.90;99.90
52275;DHT22;38228;50.940;4.024;2023-07-16T01:11:02;18.80;99.90
52275;DHT22;38228;50.940;4.024;2023-07-16T01:13:29;18.80;99.90
52275;DHT22;38228;50.940;4.024;2023-07-16T01:15:55;18.80;99.90
52275;DHT22;38228;50.940;4.024;2023-07-16T01:18:21;18.70;99.90
52275;DHT22;38228;50.940;4.024;2023-07-16T01:20:46;18.60;99.90
52275;DHT22;38228;50.940;4.024;2023-07-16T01:25:56;18.60;99.90
52275;DHT22;38228;50.940;4.024;2023-07-16T01:28:35;18.40;99.90
52275;DHT22;38228;50.940;4.024;2023-07-16T01:31:04;18.40;99.90
52275;DHT22;38228;50.940;4.024;2023-07-16T01:33:32;18.60;99.90
52275;DHT22;38228;50.940;4.024;2023-07-16T01:35:59;18.60;99.90
52275;DHT22;38228;50.940;4.024;2023-07-16T01:38:25;18.40;99.90
52275;DHT22;38228;50.940;4.024;2023-07-16T01:40:51;18.30;99.90
52275;DHT22;38228;50.940;4.024;2023-07-16T01:43:17;18.20;99.90
52275;DHT22;38228;50.940;4.024;2023-07-16T01:45:42;18.00;99.90
52275;DHT22;38228;50.940;4.024;2023-07-16T01:48:32;17.90;99.90
52275;DHT22;38228;50.940;4.024;2023-07-16T01:50:57;17.90;99.90
52275;DHT22;38228;50.940;4.024;2023-07-16T01:53:23;17.80;99.90
52275;DHT22;38228;50.940;4.024;2023-07-16T01:55:49;17.70;99.90
52275;DHT22;38228;50.940;4.024;2023-07-16T01:58:15;17.70;99.90
52275;DHT22;38228;50.940;4.024;2023-07-16T02:00:41;17.70;99.90
52275;DHT22;38228;50.940;4.024;2023-07-16T02:03:07;17.90;99.90
52275;DHT22;38228;50.940;4.024;2023-07-16T02:05:33;18.00;99.90
52275;DHT22;38228;50.940;4.024;2023-07-16T02:07:59;18.10;99.90
52275;DHT22;38228;50.940;4.024;2023-07-16T02:10:24;18.20;99.90
52275;DHT22;38228;50.940;4.024;2023-07-16T02:12:50;18.10;99.90
52275;DHT22;38228;50.940;4.024;2023-07-16T02:15:16;18.20;99.90
52275;DHT22;38228;50.940;4.024;2023-07-16T02:17:43;18.20;99.90
52275;DHT22;38228;50.940;4.024;2023-07-16T02:20:10;18.10;99.90
52275;DHT22;38228;50.940;4.024;2023-07-16T02:22:36;18.20;99.90
52275;DHT22;38228;50.940;4.024;2023-07-16T02:25:02;18.10;99.90
52275;DHT22;38228;50.940;4.024;2023-07-16T02:27:28;17.90;99.90
52275;DHT22;38228;50.940;4.024;2023-07-16T02:29:54;17.90;99.90
52275;DHT22;38228;50.940;4.024;2023-07-16T02:32:20;17.80;99.90
52275;DHT22;38228;50.940;4.024;2023-07-16T02:34:46;17.80;99.90
52275;DHT22;38228;50.940;4.024;2023-07-16T02:37:11;17.80;99.90
52275;DHT22;38228;50.940;4.024;2023-07-16T02:39:39;17.90;99.90
52275;DHT22;38228;50.940;4.024;2023-07-16T02:42:05;17.90;99.90
52275;DHT22;38228;50.940;4.024;2023-07-16T02:44:31;17.80;99.90
52275;DHT22;38228;50.940;4.024;2023-07-16T02:46:56;17.70;99.90
52275;DHT22;38228;50.940;4.024;2023-07-16T02:49:22;17.60;99.90
52275;DHT22;38228;50.940;4.024;2023-07-16T02:51:48;17.70;99.90
52275;DHT22;38228;50.940;4.024;2023-07-16T02:54:13;17.70;99.90
52275;DHT22;38228;50.940;4.024;2023-07-16T02:56:39;17.60;99.90
52275;DHT22;38228;50.940;4.024;2023-07-16T02:59:05;17.40;99.90
52275;DHT22;38228;50.940;4.024;2023-07-16T03:01:30;17.50;99.90
52275;DHT22;38228;50.940;4.024;2023-07-16T03:03:56;17.40;99.90
52275;DHT22;38228;50.940;4.024;2023-07-16T03:06:22;17.40;99.90
52275;DHT22;38228;50.940;4.024;2023-07-16T03:08:48;17.50;99.90
52275;DHT22;38228;50.940;4.024;2023-07-16T03:11:14;17.50;99.90
52275;DHT22;38228;50.940;4.024;2023-07-16T03:13:40;17.40;99.90
52275;DHT22;38228;50.940;4.024;2023-07-16T03:16:06;17.40;99.90
52275;DHT22;38228;50.940;4.024;2023-07-16T03:18:32;17.50;99.90
52275;DHT22;38228;50.940;4.024;2023-07-16T03:20:58;17.60;99.90
52275;DHT22;38228;50.940;4.024;2023-07-16T03:23:24;17.50;99.90
52275;DHT22;38228;50.940;4.024;2023-07-16T03:25:53;17.60;99.90
52275;DHT22;38228;50.940;4.024;2023-07-16T03:28:19;17.40;99.90
52275;DHT22;38228;50.940;4.024;2023-07-16T03:30:49;17.50;99.90
52275;DHT22;38228;50.940;4.024;2023-07-16T03:33:15;17.50;99.90
52275;DHT22;38228;50.940;4.024;2023-07-16T03:35:45;17.50;99.90
52275;DHT22;38228;50.940;4.024;2023-07-16T03:38:12;17.40;99.90
52275;DHT22;38228;50.940;4.024;2023-07-16T03:40:38;17.40;99.90
52275;DHT22;38228;50.940;4.024;2023-07-16T03:43:04;17.40;99.90
52275;DHT22;38228;50.940;4.024;2023-07-16T03:45:30;17.40;99.90
52275;DHT22;38228;50.940;4.024;2023-07-16T03:47:55;17.40;99.90
52275;DHT22;38228;50.940;4.024;2023-07-16T03:50:21;17.40;99.90
52275;DHT22;38228;50.940;4.024;2023-07-16T03:52:47;17.20;99.90
52275;DHT22;38228;50.940;4.024;2023-07-16T03:55:13;17.10;99.90
52275;DHT22;38228;50.940;4.024;2023-07-16T03:57:39;17.10;99.90
52275;DHT22;38228;50.940;4.024;2023-07-16T04:00:06;17.30;99.90
52275;DHT22;38228;50.940;4.024;2023-07-16T04:02:34;17.40;99.90
52275;DHT22;38228;50.940;4.024;2023-07-16T04:05:00;17.40;99.90
52275;DHT22;38228;50.940;4.024;2023-07-16T04:07:26;17.40;99.90
52275;DHT22;38228;50.940;4.024;2023-07-16T04:09:52;17.40;99.90
52275;DHT22;38228;50.940;4.024;2023-07-16T04:12:18;17.40;99.90
52275;DHT22;38228;50.940;4.024;2023-07-16T04:14:43;17.40;99.90
52275;DHT22;38228;50.940;4.024;2023-07-16T04:17:09;17.40;99.90
52275;DHT22;38228;50.940;4.024;2023-07-16T04:19:35;17.30;99.90
52275;DHT22;38228;50.940;4.024;2023-07-16T04:22:01;17.30;99.90
52275;DHT22;38228;50.940;4.024;2023-07-16T04:24:27;17.30;99.90
52275;DHT22;38228;50.940;4.024;2023-07-16T04:26:56;17.20;99.90
52275;DHT22;38228;50.940;4.024;2023-07-16T04:29:22;17.40;99.90
52275;DHT22;38228;50.940;4.024;2023-07-16T04:31:48;17.50;99.90
52275;DHT22;38228;50.940;4.024;2023-07-16T04:34:13;17.60;99.90
52275;DHT22;38228;50.940;4.024;2023-07-16T04:36:39;17.50;99.90
52275;DHT22;38228;50.940;4.024;2023-07-16T04:39:05;17.30;99.90
52275;DHT22;38228;50.940;4.024;2023-07-16T04:41:31;17.30;99.90
52275;DHT22;38228;50.940;4.024;2023-07-16T04:43:57;17.40;99.90
52275;DHT22;38228;50.940;4.024;2023-07-16T04:46:22;17.30;99.90
52275;DHT22;38228;50.940;4.024;2023-07-16T04:48:48;17.30;99.90
52275;DHT22;38228;50.940;4.024;2023-07-16T04:51:14;17.30;99.90
52275;DHT22;38228;50.940;4.024;2023-07-16T04:53:40;17.50;99.90
52275;DHT22;38228;50.940;4.024;2023-07-16T04:56:14;17.30;99.90
52275;DHT22;38228;50.940;4.024;2023-07-16T04:58:41;17.30;99.90
52275;DHT22;38228;50.940;4.024;2023-07-16T05:01:11;17.40;99.90
52275;DHT22;38228;50.940;4.024;2023-07-16T05:03:36;17.50;99.90
52275;DHT22;38228;50.940;4.024;2023-07-16T05:06:02;17.60;99.90
52275;DHT22;38228;50.940;4.024;2023-07-16T05:08:28;17.40;99.90
52275;DHT22;38228;50.940;4.024;2023-07-16T05:10:54;17.60;99.90
52275;DHT22;38228;50.940;4.024;2023-07-16T05:13:20;17.80;99.90
52275;DHT22;38228;50.940;4.024;2023-07-16T05:15:46;17.90;99.90
52275;DHT22;38228;50.940;4.024;2023-07-16T05:18:12;18.10;99.90
52275;DHT22;38228;50.940;4.024;2023-07-16T05:20:37;17.90;99.90
52275;DHT22;38228;50.940;4.024;2023-07-16T05:23:03;17.90;99.90
52275;DHT22;38228;50.940;4.024;2023-07-16T05:25:29;18.00;99.90
52275;DHT22;38228;50.940;4.024;2023-07-16T05:27:55;18.00;99.90
52275;DHT22;38228;50.940;4.024;2023-07-16T05:30:21;17.80;99.90
52275;DHT22;38228;50.940;4.024;2023-07-16T05:32:47;17.70;99.90
52275;DHT22;38228;50.940;4.024;2023-07-16T05:35:13;17.80;99.90
52275;DHT22;38228;50.940;4.024;2023-07-16T05:37:39;17.70;99.90
52275;DHT22;38228;50.940;4.024;2023-07-16T05:40:05;17.80;99.90
52275;DHT22;38228;50.940;4.024;2023-07-16T05:42:34;17.90;99.90
52275;DHT22;38228;50.940;4.024;2023-07-16T05:45:00;18.00;99.90
52275;DHT22;38228;50.940;4.024;2023-07-16T05:47:26;18.00;99.90
52275;DHT22;38228;50.940;4.024;2023-07-16T05:49:52;18.00;99.90
52275;DHT22;38228;50.940;4.024;2023-07-16T05:52:18;18.10;99.90
52275;DHT22;38228;50.940;4.024;2023-07-16T05:54:44;18.00;99.90
52275;DHT22;38228;50.940;4.024;2023-07-16T05:57:12;18.10;99.90
52275;DHT22;38228;50.940;4.024;2023-07-16T05:59:38;18.10;99.90
52275;DHT22;38228;50.940;4.024;2023-07-16T06:02:04;18.10;99.90
52275;DHT22;38228;50.940;4.024;2023-07-16T06:04:30;18.00;99.90
52275;DHT22;38228;50.940;4.024;2023-07-16T06:06:57;17.90;99.90
52275;DHT22;38228;50.940;4.024;2023-07-16T06:09:26;18.10;99.90
52275;DHT22;38228;50.940;4.024;2023-07-16T06:11:51;18.20;99.90
52275;DHT22;38228;50.940;4.024;2023-07-16T06:14:17;18.30;99.90
52275;DHT22;38228;50.940;4.024;2023-07-16T06:16:43;17.90;99.90
52275;DHT22;38228;50.940;4.024;2023-07-16T06:19:09;18.00;99.90
52275;DHT22;38228;50.940;4.024;2023-07-16T06:21:34;18.00;99.90
52275;DHT22;38228;50.940;4.024;2023-07-16T06:24:00;18.00;99.90
52275;DHT22;38228;50.940;4.024;2023-07-16T06:26:26;17.90;99.90
52275;DHT22;38228;50.940;4.024;2023-07-16T06:28:52;17.80;99.90
52275;DHT22;38228;50.940;4.024;2023-07-16T06:31:18;17.90;99.90
52275;DHT22;38228;50.940;4.024;2023-07-16T06:33:44;18.00;99.90
52275;DHT22;38228;50.940;4.024;2023-07-16T06:36:12;18.30;99.90
52275;DHT22;38228;50.940;4.024;2023-07-16T06:38:38;18.20;99.90
52275;DHT22;38228;50.940;4.024;2023-07-16T06:41:04;18.10;99.90
52275;DHT22;38228;50.940;4.024;2023-07-16T06:43:29;18.20;99.90
52275;DHT22;38228;50.940;4.024;2023-07-16T06:45:55;18.20;99.90
52275;DHT22;38228;50.940;4.024;2023-07-16T06:48:21;18.30;99.90
52275;DHT22;38228;50.940;4.024;2023-07-16T06:50:46;18.40;99.90
52275;DHT22;38228;50.940;4.024;2023-07-16T06:53:12;18.60;99.90
52275;DHT22;38228;50.940;4.024;2023-07-16T06:55:38;18.50;99.90
52275;DHT22;38228;50.940;4.024;2023-07-16T06:58:04;18.50;99.90
52275;DHT22;38228;50.940;4.024;2023-07-16T07:00:29;18.60;99.90
52275;DHT22;38228;50.940;4.024;2023-07-16T07:02:56;18.80;99.90
52275;DHT22;38228;50.940;4.024;2023-07-16T07:05:22;18.70;99.90
52275;DHT22;38228;50.940;4.024;2023-07-16T07:07:47;18.60;99.90
52275;DHT22;38228;50.940;4.024;2023-07-16T07:10:13;18.90;99.90
52275;DHT22;38228;50.940;4.024;2023-07-16T07:12:39;19.00;99.90
52275;DHT22;38228;50.940;4.024;2023-07-16T07:15:06;19.20;99.90
52275;DHT22;38228;50.940;4.024;2023-07-16T07:17:32;19.30;99.90
52275;DHT22;38228;50.940;4.024;2023-07-16T07:19:58;19.30;99.90
52275;DHT22;38228;50.940;4.024;2023-07-16T07:22:24;19.30;99.90
52275;DHT22;38228;50.940;4.024;2023-07-16T07:24:49;19.30;99.90
52275;DHT22;38228;50.940;4.024;2023-07-16T07:27:16;19.60;99.90
52275;DHT22;38228;50.940;4.024;2023-07-16T07:29:41;19.70;99.90
52275;DHT22;38228;50.940;4.024;2023-07-16T07:32:07;19.80;99.90
52275;DHT22;38228;50.940;4.024;2023-07-16T07:34:33;19.70;99.90
52275;DHT22;38228;50.940;4.024;2023-07-16T07:37:02;19.70;99.90
52275;DHT22;38228;50.940;4.024;2023-07-16T07:39:27;19.90;99.90
52275;DHT22;38228;50.940;4.024;2023-07-16T07:41:53;19.90;99.90
52275;DHT22;38228;50.940;4.024;2023-07-16T07:44:19;20.00;99.90
52275;DHT22;38228;50.940;4.024;2023-07-16T07:46:44;19.60;99.90
52275;DHT22;38228;50.940;4.024;2023-07-16T07:49:10;19.80;99.90
52275;DHT22;38228;50.940;4.024;2023-07-16T07:51:36;20.00;99.90
52275;DHT22;38228;50.940;4.024;2023-07-16T07:54:01;19.90;99.90
52275;DHT22;38228;50.940;4.024;2023-07-16T07:56:27;20.20;99.90
52275;DHT22;38228;50.940;4.024;2023-07-16T07:58:53;20.50;99.90
52275;DHT22;38228;50.940;4.024;2023-07-16T08:01:19;20.50;99.90
52275;DHT22;38228;50.940;4.024;2023-07-16T08:03:44;20.60;99.90
52275;DHT22;38228;50.940;4.024;2023-07-16T08:06:10;20.80;99.90
52275;DHT22;38228;50.940;4.024;2023-07-16T08:08:37;20.80;99.90
52275;DHT22;38228;50.940;4.024;2023-07-16T08:11:03;20.90;99.90
52275;DHT22;38228;50.940;4.024;2023-07-16T08:13:28;21.00;99.90
52275;DHT22;38228;50.940;4.024;2023-07-16T08:15:54;21.40;99.90
52275;DHT22;38228;50.940;4.024;2023-07-16T08:18:20;21.30;99.90
52275;DHT22;38228;50.940;4.024;2023-07-16T08:20:46;21.20;99.90
52275;DHT22;38228;50.940;4.024;2023-07-16T08:23:13;21.30;99.90
52275;DHT22;38228;50.940;4.024;2023-07-16T08:25:38;21.10;99.90
52275;DHT22;38228;50.940;4.024;2023-07-16T08:28:04;21.10;99.90
52275;DHT22;38228;50.940;4.024;2023-07-16T08:30:32;21.10;99.90
52275;DHT22;38228;50.940;4.024;2023-07-16T08:32:58;20.80;99.90
52275;DHT22;38228;50.940;4.024;2023-07-16T08:35:24;21.10;99.90
52275;DHT22;38228;50.940;4.024;2023-07-16T08:37:49;21.10;99.90
52275;DHT22;38228;50.940;4.024;2023-07-16T08:40:15;21.50;99.90
52275;DHT22;38228;50.940;4.024;2023-07-16T08:42:44;21.70;99.90
52275;DHT22;38228;50.940;4.024;2023-07-16T08:45:11;21.70;99.90
52275;DHT22;38228;50.940;4.024;2023-07-16T08:47:37;21.90;99.90
52275;DHT22;38228;50.940;4.024;2023-07-16T08:50:03;22.00;99.90
52275;DHT22;38228;50.940;4.024;2023-07-16T08:52:30;21.80;99.90
52275;DHT22;38228;50.940;4.024;2023-07-16T08:54:56;22.10;99.90
52275;DHT22;38228;50.940;4.024;2023-07-16T08:57:22;22.30;99.90
52275;DHT22;38228;50.940;4.024;2023-07-16T08:59:49;22.10;99.90
52275;DHT22;38228;50.940;4.024;2023-07-16T09:02:18;22.00;99.90
52275;DHT22;38228;50.940;4.024;2023-07-16T09:04:46;22.00;99.90
52275;DHT22;38228;50.940;4.024;2023-07-16T09:07:12;22.00;99.90
52275;DHT22;38228;50.940;4.024;2023-07-16T09:09:38;22.20;99.90
52275;DHT22;38228;50.940;4.024;2023-07-16T09:12:04;22.30;99.90
52275;DHT22;38228;50.940;4.024;2023-07-16T09:14:30;22.20;99.90
52275;DHT22;38228;50.940;4.024;2023-07-16T09:16:56;22.00;99.90
52275;DHT22;38228;50.940;4.024;2023-07-16T09:19:25;21.90;99.90
52275;DHT22;38228;50.940;4.024;2023-07-16T09:21:51;21.50;99.90
52275;DHT22;38228;50.940;4.024;2023-07-16T09:24:19;21.30;99.90
52275;DHT22;38228;50.940;4.024;2023-07-16T09:26:52;21.60;99.90
52275;DHT22;38228;50.940;4.024;2023-07-16T09:29:19;21.80;99.90
52275;DHT22;38228;50.940;4.024;2023-07-16T09:31:53;22.20;99.90
52275;DHT22;38228;50.940;4.024;2023-07-16T09:34:20;22.40;99.90
52275;DHT22;38228;50.940;4.024;2023-07-16T09:36:49;22.40;99.90
52275;DHT22;38228;50.940;4.024;2023-07-16T09:39:18;22.20;99.90
52275;DHT22;38228;50.940;4.024;2023-07-16T09:41:50;22.00;99.90
52275;DHT22;38228;50.940;4.024;2023-07-16T09:44:16;22.20;99.90
52275;DHT22;38228;50.940;4.024;2023-07-16T09:46:43;22.40;99.90
52275;DHT22;38228;50.940;4.024;2023-07-16T09:49:10;21.90;99.90
52275;DHT22;38228;50.940;4.024;2023-07-16T09:51:37;21.40;99.90
52275;DHT22;38228;50.940;4.024;2023-07-16T09:54:03;21.20;99.90
52275;DHT22;38228;50.940;4.024;2023-07-16T09:56:36;21.30;99.90
52275;DHT22;38228;50.940;4.024;2023-07-16T09:59:08;21.20;99.90
52275;DHT22;38228;50.940;4.024;2023-07-16T10:01:37;21.40;99.90
52275;DHT22;38228;50.940;4.024;2023-07-16T10:04:13;21.60;99.90
52275;DHT22;38228;50.940;4.024;2023-07-16T10:06:57;22.00;99.90
52275;DHT22;38228;50.940;4.024;2023-07-16T10:09:37;21.90;99.90
52275;DHT22;38228;50.940;4.024;2023-07-16T10:12:18;22.20;99.90
52275;DHT22;38228;50.940;4.024;2023-07-16T10:14:54;22.30;99.90
52275;DHT22;38228;50.940;4.024;2023-07-16T10:17:24;22.50;99.90
52275;DHT22;38228;50.940;4.024;2023-07-16T10:19:57;21.80;99.90
52275;DHT22;38228;50.940;4.024;2023-07-16T10:22:41;20.70;99.90
52275;DHT22;38228;50.940;4.024;2023-07-16T10:25:22;19.40;99.90
52275;DHT22;38228;50.940;4.024;2023-07-16T10:27:50;18.70;99.90
52275;DHT22;38228;50.940;4.024;2023-07-16T10:30:17;18.50;99.90
52275;DHT22;38228;50.940;4.024;2023-07-16T10:32:43;18.50;99.90
52275;DHT22;38228;50.940;4.024;2023-07-16T10:35:09;18.60;99.90
52275;DHT22;38228;50.940;4.024;2023-07-16T10:37:36;18.80;99.90
52275;DHT22;38228;50.940;4.024;2023-07-16T10:40:03;18.90;99.90
52275;DHT22;38228;50.940;4.024;2023-07-16T10:42:29;19.00;99.90
52275;DHT22;38228;50.940;4.024;2023-07-16T10:45:00;19.00;99.90
52275;DHT22;38228;50.940;4.024;2023-07-16T10:47:34;19.30;99.90
52275;DHT22;38228;50.940;4.024;2023-07-16T10:50:00;19.20;99.90
52275;DHT22;38228;50.940;4.024;2023-07-16T10:52:26;19.10;99.90
52275;DHT22;38228;50.940;4.024;2023-07-16T10:54:53;18.90;99.90
52275;DHT22;38228;50.940;4.024;2023-07-16T10:57:24;19.10;99.90
52275;DHT22;38228;50.940;4.024;2023-07-16T10:59:51;19.30;99.90
52275;DHT22;38228;50.940;4.024;2023-07-16T11:02:17;19.80;99.90
52275;DHT22;38228;50.940;4.024;2023-07-16T11:04:47;20.00;99.90
52275;DHT22;38228;50.940;4.024;2023-07-16T11:07:14;20.40;99.90
52275;DHT22;38228;50.940;4.024;2023-07-16T11:09:47;20.90;99.90
52275;DHT22;38228;50.940;4.024;2023-07-16T11:12:16;21.50;99.90
52275;DHT22;38228;50.940;4.024;2023-07-16T11:14:46;21.70;99.90
52275;DHT22;38228;50.940;4.024;2023-07-16T11:17:13;22.00;99.90
52275;DHT22;38228;50.940;4.024;2023-07-16T11:19:39;22.00;99.90
52275;DHT22;38228;50.940;4.024;2023-07-16T11:22:06;22.20;99.90
52275;DHT22;38228;50.940;4.024;2023-07-16T11:24:42;22.30;99.90
52275;DHT22;38228;50.940;4.024;2023-07-16T11:27:30;22.60;99.90
52275;DHT22;38228;50.940;4.024;2023-07-16T11:29:58;23.10;99.90
52275;DHT22;38228;50.940;4.024;2023-07-16T11:32:28;23.40;99.90
52275;DHT22;38228;50.940;4.024;2023-07-16T11:34:55;23.40;99.90
52275;DHT22;38228;50.940;4.024;2023-07-16T11:37:21;23.40;99.90
52275;DHT22;38228;50.940;4.024;2023-07-16T11:39:47;23.40;99.90
52275;DHT22;38228;50.940;4.024;2023-07-16T11:42:17;23.40;99.90
52275;DHT22;38228;50.940;4.024;2023-07-16T11:44:43;23.30;99.90
52275;DHT22;38228;50.940;4.024;2023-07-16T11:47:13;23.30;99.90
52275;DHT22;38228;50.940;4.024;2023-07-16T11:49:39;23.20;99.90
52275;DHT22;38228;50.940;4.024;2023-07-16T11:52:05;23.50;99.90
52275;DHT22;38228;50.940;4.024;2023-07-16T11:54:31;23.60;99.90
52275;DHT22;38228;50.940;4.024;2023-07-16T11:56:57;23.80;99.90
52275;DHT22;38228;50.940;4.024;2023-07-16T11:59:22;24.20;99.90
52275;DHT22;38228;50.940;4.024;2023-07-16T12:01:48;24.20;99.90
52275;DHT22;38228;50.940;4.024;2023-07-16T12:04:16;24.20;99.90
52275;DHT22;38228;50.940;4.024;2023-07-16T12:06:42;24.20;99.90
52275;DHT22;38228;50.940;4.024;2023-07-16T12:09:08;24.20;99.90
52275;DHT22;38228;50.940;4.024;2023-07-16T12:11:34;24.00;99.90
52275;DHT22;38228;50.940;4.024;2023-07-16T12:14:00;24.30;99.90
52275;DHT22;38228;50.940;4.024;2023-07-16T12:16:25;24.60;99.90
52275;DHT22;38228;50.940;4.024;2023-07-16T12:18:51;24.40;99.90
52275;DHT22;38228;50.940;4.024;2023-07-16T12:21:17;24.30;99.90
52275;DHT22;38228;50.940;4.024;2023-07-16T12:23:42;24.50;99.90
52275;DHT22;38228;50.940;4.024;2023-07-16T12:26:08;24.50;99.90
52275;DHT22;38228;50.940;4.024;2023-07-16T12:28:34;24.70;99.90
52275;DHT22;38228;50.940;4.024;2023-07-16T12:31:00;25.10;99.90
52275;DHT22;38228;50.940;4.024;2023-07-16T12:33:26;25.00;99.90
52275;DHT22;38228;50.940;4.024;2023-07-16T12:35:52;25.00;99.90
52275;DHT22;38228;50.940;4.024;2023-07-16T12:38:17;24.50;99.90
52275;DHT22;38228;50.940;4.024;2023-07-16T12:40:43;24.80;99.90
52275;DHT22;38228;50.940;4.024;2023-07-16T12:43:09;24.80;99.90
52275;DHT22;38228;50.940;4.024;2023-07-16T12:45:35;25.10;99.90
52275;DHT22;38228;50.940;4.024;2023-07-16T12:48:00;24.90;99.90
52275;DHT22;38228;50.940;4.024;2023-07-16T12:50:26;25.10;99.90
52275;DHT22;38228;50.940;4.024;2023-07-16T12:52:54;25.50;99.90
52275;DHT22;38228;50.940;4.024;2023-07-16T12:55:20;24.80;99.90
52275;DHT22;38228;50.940;4.024;2023-07-16T12:57:46;24.50;99.90
52275;DHT22;38228;50.940;4.024;2023-07-16T13:00:12;24.30;99.90
52275;DHT22;38228;50.940;4.024;2023-07-16T13:02:38;24.60;99.50
52275;DHT22;38228;50.940;4.024;2023-07-16T13:05:04;24.70;99.90
52275;DHT22;38228;50.940;4.024;2023-07-16T13:07:30;24.00;99.90
52275;DHT22;38228;50.940;4.024;2023-07-16T13:09:59;24.00;99.90
52275;DHT22;38228;50.940;4.024;2023-07-16T13:12:24;24.00;99.90
52275;DHT22;38228;50.940;4.024;2023-07-16T13:14:50;23.90;99.90
52275;DHT22;38228;50.940;4.024;2023-07-16T13:17:16;23.80;99.80
52275;DHT22;38228;50.940;4.024;2023-07-16T13:19:44;23.90;99.90
52275;DHT22;38228;50.940;4.024;2023-07-16T13:22:10;23.70;99.90
52275;DHT22;38228;50.940;4.024;2023-07-16T13:24:35;24.00;99.90
52275;DHT22;38228;50.940;4.024;2023-07-16T13:27:01;24.10;99.90
52275;DHT22;38228;50.940;4.024;2023-07-16T13:29:28;24.00;99.80
52275;DHT22;38228;50.940;4.024;2023-07-16T13:31:53;24.00;99.40
52275;DHT22;38228;50.940;4.024;2023-07-16T13:34:19;24.20;98.80
52275;DHT22;38228;50.940;4.024;2023-07-16T13:36:45;24.50;98.90
52275;DHT22;38228;50.940;4.024;2023-07-16T13:39:10;24.70;98.50
52275;DHT22;38228;50.940;4.024;2023-07-16T13:41:38;24.40;97.20
52275;DHT22;38228;50.940;4.024;2023-07-16T13:44:04;24.50;96.80
52275;DHT22;38228;50.940;4.024;2023-07-16T13:46:30;25.10;96.50
52275;DHT22;38228;50.940;4.024;2023-07-16T13:48:56;25.10;95.50
52275;DHT22;38228;50.940;4.024;2023-07-16T13:51:22;25.00;95.80
52275;DHT22;38228;50.940;4.024;2023-07-16T13:53:48;24.90;95.70
52275;DHT22;38228;50.940;4.024;2023-07-16T13:56:14;25.20;96.10
52275;DHT22;38228;50.940;4.024;2023-07-16T13:58:40;25.20;95.40
52275;DHT22;38228;50.940;4.024;2023-07-16T14:01:06;24.60;95.70
52275;DHT22;38228;50.940;4.024;2023-07-16T14:03:31;24.80;96.10
52275;DHT22;38228;50.940;4.024;2023-07-16T14:05:57;25.00;95.90
52275;DHT22;38228;50.940;4.024;2023-07-16T14:08:23;24.90;96.10
52275;DHT22;38228;50.940;4.024;2023-07-16T14:10:49;25.30;95.70
52275;DHT22;38228;50.940;4.024;2023-07-16T14:13:14;24.90;95.10
52275;DHT22;38228;50.940;4.024;2023-07-16T14:15:41;24.70;95.80
52275;DHT22;38228;50.940;4.024;2023-07-16T14:18:07;25.00;96.10
52275;DHT22;38228;50.940;4.024;2023-07-16T14:20:33;25.10;95.60
52275;DHT22;38228;50.940;4.024;2023-07-16T14:22:59;25.40;95.30
52275;DHT22;38228;50.940;4.024;2023-07-16T14:25:25;25.60;95.60
52275;DHT22;38228;50.940;4.024;2023-07-16T14:27:51;26.00;95.50
52275;DHT22;38228;50.940;4.024;2023-07-16T14:30:16;26.30;95.00
52275;DHT22;38228;50.940;4.024;2023-07-16T14:32:42;26.50;93.60
52275;DHT22;38228;50.940;4.024;2023-07-16T14:35:09;26.70;93.90
52275;DHT22;38228;50.940;4.024;2023-07-16T14:37:35;27.00;93.50
52275;DHT22;38228;50.940;4.024;2023-07-16T14:40:00;26.70;93.30
52275;DHT22;38228;50.940;4.024;2023-07-16T14:42:26;26.70;93.80
52275;DHT22;38228;50.940;4.024;2023-07-16T14:44:52;26.80;93.00
52275;DHT22;38228;50.940;4.024;2023-07-16T14:47:18;27.20;92.70
52275;DHT22;38228;50.940;4.024;2023-07-16T14:49:44;27.30;92.20
52275;DHT22;38228;50.940;4.024;2023-07-16T14:52:09;27.50;91.80
52275;DHT22;38228;50.940;4.024;2023-07-16T14:54:35;27.40;91.40
52275;DHT22;38228;50.940;4.024;2023-07-16T14:57:01;27.40;91.00
52275;DHT22;38228;50.940;4.024;2023-07-16T14:59:28;27.20;91.90
52275;DHT22;38228;50.940;4.024;2023-07-16T15:01:54;27.30;91.10
52275;DHT22;38228;50.940;4.024;2023-07-16T15:04:20;27.20;91.40
52275;DHT22;38228;50.940;4.024;2023-07-16T15:06:46;27.20;91.00
52275;DHT22;38228;50.940;4.024;2023-07-16T15:09:11;27.30;90.80
52275;DHT22;38228;50.940;4.024;2023-07-16T15:11:39;26.80;91.10
52275;DHT22;38228;50.940;4.024;2023-07-16T15:14:05;26.80;91.30
52275;DHT22;38228;50.940;4.024;2023-07-16T15:16:31;26.70;91.40
52275;DHT22;38228;50.940;4.024;2023-07-16T15:18:57;26.30;91.90
52275;DHT22;38228;50.940;4.024;2023-07-16T15:21:22;25.90;92.50
52275;DHT22;38228;50.940;4.024;2023-07-16T15:23:48;25.60;92.80
52275;DHT22;38228;50.940;4.024;2023-07-16T15:26:14;25.70;93.60
52275;DHT22;38228;50.940;4.024;2023-07-16T15:28:40;25.70;93.30
52275;DHT22;38228;50.940;4.024;2023-07-16T15:31:08;25.20;93.90
52275;DHT22;38228;50.940;4.024;2023-07-16T15:33:34;24.90;94.60